Peterson, Minnesota
Current Conditions -  °F | °C
As of 6:55 AM on Wednesday 26 Nov 2014 (Local Time) from KFKA Reporting Station
Overcast Overcast  
Wind Chill: 10°   Ceiling: 8000
Heat Index: 19°   Visibility: 10mi
Dew Point: 17°   Wind: 7mph
Humidity: 89%   Direction: 110°ESE
Pressure: 30.03"   Gusts: NA
Location:  43.79°N, 91.83°W
Report Text: KFKA 261255Z AUTO 11006KT 10SM SCT050 OVC080 M07/M09 A3003 RMK AO2 T10711086
Loading
Personal Weather Stations






























Interactive Weather Map New forecast layout! Learn more

10-Day Weather Forecast

Advertisements
Track Severe Weather on mobile